sensor_id;sensor_type;location;lat;lon;timestamp;temperature;humidity
66096;SHT31;53861;53.422;14.530;2024-03-07T00:01:20;4.17;96.45
66096;SHT31;53861;53.422;14.530;2024-03-07T00:03:49;4.18;96.82
66096;SHT31;53861;53.422;14.530;2024-03-07T00:06:17;4.18;96.77
66096;SHT31;53861;53.422;14.530;2024-03-07T00:08:44;4.21;96.67
66096;SHT31;53861;53.422;14.530;2024-03-07T00:11:11;4.24;96.83
66096;SHT31;53861;53.422;14.530;2024-03-07T00:13:39;4.25;96.77
66096;SHT31;53861;53.422;14.530;2024-03-07T00:16:06;4.25;96.54
66096;SHT31;53861;53.422;14.530;2024-03-07T00:18:34;4.34;96.69
66096;SHT31;53861;53.422;14.530;2024-03-07T00:21:03;4.33;96.34
66096;SHT31;53861;53.422;14.530;2024-03-07T00:23:31;4.34;96.37
66096;SHT31;53861;53.422;14.530;2024-03-07T00:25:59;4.38;96.42
66096;SHT31;53861;53.422;14.530;2024-03-07T00:28:27;4.30;96.30
66096;SHT31;53861;53.422;14.530;2024-03-07T00:30:58;4.24;96.19
66096;SHT31;53861;53.422;14.530;2024-03-07T00:33:25;4.27;96.53
66096;SHT31;53861;53.422;14.530;2024-03-07T00:35:53;4.25;96.29
66096;SHT31;53861;53.422;14.530;2024-03-07T00:38:22;4.20;95.84
66096;SHT31;53861;53.422;14.530;2024-03-07T00:40:49;4.20;95.80
66096;SHT31;53861;53.422;14.530;2024-03-07T00:43:16;4.13;95.36
66096;SHT31;53861;53.422;14.530;2024-03-07T00:45:44;4.16;95.56
66096;SHT31;53861;53.422;14.530;2024-03-07T00:48:15;4.17;95.40
66096;SHT31;53861;53.422;14.530;2024-03-07T00:50:43;4.14;95.07
66096;SHT31;53861;53.422;14.530;2024-03-07T00:53:10;4.11;95.21
66096;SHT31;53861;53.422;14.530;2024-03-07T00:55:39;4.11;94.97
66096;SHT31;53861;53.422;14.530;2024-03-07T00:58:06;4.18;94.98
66096;SHT31;53861;53.422;14.530;2024-03-07T01:00:34;4.18;95.03
66096;SHT31;53861;53.422;14.530;2024-03-07T01:03:01;4.10;94.21
66096;SHT31;53861;53.422;14.530;2024-03-07T01:05:28;4.10;94.42
66096;SHT31;53861;53.422;14.530;2024-03-07T01:07:56;4.06;94.19
66096;SHT31;53861;53.422;14.530;2024-03-07T01:10:23;3.93;93.96
66096;SHT31;53861;53.422;14.530;2024-03-07T01:12:52;3.87;94.21
66096;SHT31;53861;53.422;14.530;2024-03-07T01:15:23;3.82;94.14
66096;SHT31;53861;53.422;14.530;2024-03-07T01:17:50;3.75;94.15
66096;SHT31;53861;53.422;14.530;2024-03-07T01:20:18;3.66;94.07
66096;SHT31;53861;53.422;14.530;2024-03-07T01:22:45;3.69;93.94
66096;SHT31;53861;53.422;14.530;2024-03-07T01:25:13;3.65;94.00
66096;SHT31;53861;53.422;14.530;2024-03-07T01:27:40;3.61;93.93
66096;SHT31;53861;53.422;14.530;2024-03-07T01:30:10;3.51;94.02
66096;SHT31;53861;53.422;14.530;2024-03-07T01:32:39;3.49;94.20
66096;SHT31;53861;53.422;14.530;2024-03-07T01:35:06;3.42;94.02
66096;SHT31;53861;53.422;14.530;2024-03-07T01:37:34;3.39;94.03
66096;SHT31;53861;53.422;14.530;2024-03-07T01:40:02;3.35;93.75
66096;SHT31;53861;53.422;14.530;2024-03-07T01:42:31;3.28;93.62
66096;SHT31;53861;53.422;14.530;2024-03-07T01:44:58;3.29;93.69
66096;SHT31;53861;53.422;14.530;2024-03-07T01:47:27;3.25;93.80
66096;SHT31;53861;53.422;14.530;2024-03-07T01:49:54;3.21;94.04
66096;SHT31;53861;53.422;14.530;2024-03-07T01:52:22;3.18;93.99
66096;SHT31;53861;53.422;14.530;2024-03-07T01:54:49;3.17;93.87
66096;SHT31;53861;53.422;14.530;2024-03-07T01:57:18;3.15;93.94
66096;SHT31;53861;53.422;14.530;2024-03-07T01:59:46;3.11;93.79
66096;SHT31;53861;53.422;14.530;2024-03-07T02:02:16;3.14;93.83
66096;SHT31;53861;53.422;14.530;2024-03-07T02:04:46;3.11;93.62
66096;SHT31;53861;53.422;14.530;2024-03-07T02:07:13;3.07;93.58
66096;SHT31;53861;53.422;14.530;2024-03-07T02:09:41;3.05;93.72
66096;SHT31;53861;53.422;14.530;2024-03-07T02:12:08;3.08;93.78
66096;SHT31;53861;53.422;14.530;2024-03-07T02:14:36;3.04;93.85
66096;SHT31;53861;53.422;14.530;2024-03-07T02:17:03;2.96;93.91
66096;SHT31;53861;53.422;14.530;2024-03-07T02:19:31;2.98;94.34
66096;SHT31;53861;53.422;14.530;2024-03-07T02:22:00;2.90;93.88
66096;SHT31;53861;53.422;14.530;2024-03-07T02:24:27;2.87;93.91
66096;SHT31;53861;53.422;14.530;2024-03-07T02:26:54;2.86;94.31
66096;SHT31;53861;53.422;14.530;2024-03-07T02:29:22;2.81;94.01
66096;SHT31;53861;53.422;14.530;2024-03-07T02:31:50;2.81;94.07
66096;SHT31;53861;53.422;14.530;2024-03-07T02:34:18;2.80;94.40
66096;SHT31;53861;53.422;14.530;2024-03-07T02:36:46;2.72;94.16
66096;SHT31;53861;53.422;14.530;2024-03-07T02:39:15;2.72;94.47
66096;SHT31;53861;53.422;14.530;2024-03-07T02:41:42;2.70;94.45
66096;SHT31;53861;53.422;14.530;2024-03-07T02:44:09;2.70;94.29
66096;SHT31;53861;53.422;14.530;2024-03-07T02:46:38;2.73;94.23
66096;SHT31;53861;53.422;14.530;2024-03-07T02:49:05;2.67;93.79
66096;SHT31;53861;53.422;14.530;2024-03-07T02:51:33;2.61;94.19
66096;SHT31;53861;53.422;14.530;2024-03-07T02:54:00;2.53;93.76
66096;SHT31;53861;53.422;14.530;2024-03-07T02:56:30;2.54;93.78
66096;SHT31;53861;53.422;14.530;2024-03-07T02:58:57;2.53;93.91
66096;SHT31;53861;53.422;14.530;2024-03-07T03:04:24;2.45;93.88
66096;SHT31;53861;53.422;14.530;2024-03-07T03:06:52;2.45;93.65
66096;SHT31;53861;53.422;14.530;2024-03-07T03:09:19;2.47;93.61
66096;SHT31;53861;53.422;14.530;2024-03-07T03:11:49;2.50;93.52
66096;SHT31;53861;53.422;14.530;2024-03-07T03:14:17;2.46;93.35
66096;SHT31;53861;53.422;14.530;2024-03-07T03:16:44;2.40;93.44
66096;SHT31;53861;53.422;14.530;2024-03-07T03:19:12;2.42;93.13
66096;SHT31;53861;53.422;14.530;2024-03-07T03:21:40;2.39;92.46
66096;SHT31;53861;53.422;14.530;2024-03-07T03:24:08;2.37;92.49
66096;SHT31;53861;53.422;14.530;2024-03-07T03:26:36;2.39;92.39
66096;SHT31;53861;53.422;14.530;2024-03-07T03:29:05;2.36;92.28
66096;SHT31;53861;53.422;14.530;2024-03-07T03:31:33;2.35;92.35
66096;SHT31;53861;53.422;14.530;2024-03-07T03:34:01;2.29;92.27
66096;SHT31;53861;53.422;14.530;2024-03-07T03:36:28;2.30;92.12
66096;SHT31;53861;53.422;14.530;2024-03-07T03:38:55;2.29;92.35
66096;SHT31;53861;53.422;14.530;2024-03-07T03:41:23;2.28;92.26
66096;SHT31;53861;53.422;14.530;2024-03-07T03:43:51;2.26;92.24
66096;SHT31;53861;53.422;14.530;2024-03-07T03:46:20;2.21;91.96
66096;SHT31;53861;53.422;14.530;2024-03-07T03:48:49;2.22;92.18
66096;SHT31;53861;53.422;14.530;2024-03-07T03:51:19;2.16;92.12
66096;SHT31;53861;53.422;14.530;2024-03-07T03:53:47;2.15;91.84
66096;SHT31;53861;53.422;14.530;2024-03-07T03:56:15;2.12;91.76
66096;SHT31;53861;53.422;14.530;2024-03-07T03:58:43;2.09;92.04
66096;SHT31;53861;53.422;14.530;2024-03-07T04:01:10;2.04;92.61
66096;SHT31;53861;53.422;14.530;2024-03-07T04:03:41;2.04;92.47
66096;SHT31;53861;53.422;14.530;2024-03-07T04:06:12;1.99;92.04
66096;SHT31;53861;53.422;14.530;2024-03-07T04:08:40;2.01;92.48
66096;SHT31;53861;53.422;14.530;2024-03-07T04:11:07;2.01;92.32
66096;SHT31;53861;53.422;14.530;2024-03-07T04:13:35;2.01;92.58
66096;SHT31;53861;53.422;14.530;2024-03-07T04:16:03;1.94;91.54
66096;SHT31;53861;53.422;14.530;2024-03-07T04:18:31;1.92;91.31
66096;SHT31;53861;53.422;14.530;2024-03-07T04:21:00;1.85;91.59
66096;SHT31;53861;53.422;14.530;2024-03-07T04:23:27;1.88;91.25
66096;SHT31;53861;53.422;14.530;2024-03-07T04:25:54;1.86;91.67
66096;SHT31;53861;53.422;14.530;2024-03-07T04:28:22;1.84;91.47
66096;SHT31;53861;53.422;14.530;2024-03-07T04:30:50;1.85;91.54
66096;SHT31;53861;53.422;14.530;2024-03-07T04:33:20;1.85;91.69
66096;SHT31;53861;53.422;14.530;2024-03-07T04:35:47;1.86;91.37
66096;SHT31;53861;53.422;14.530;2024-03-07T04:38:16;1.81;91.36
66096;SHT31;53861;53.422;14.530;2024-03-07T04:40:43;1.85;91.58
66096;SHT31;53861;53.422;14.530;2024-03-07T04:43:12;1.85;91.53
66096;SHT31;53861;53.422;14.530;2024-03-07T04:45:39;1.73;91.29
66096;SHT31;53861;53.422;14.530;2024-03-07T04:48:06;1.71;91.56
66096;SHT31;53861;53.422;14.530;2024-03-07T04:50:34;1.70;91.84
66096;SHT31;53861;53.422;14.530;2024-03-07T04:53:01;1.67;91.76
66096;SHT31;53861;53.422;14.530;2024-03-07T04:55:30;1.61;91.60
66096;SHT31;53861;53.422;14.530;2024-03-07T04:57:57;1.60;91.64
66096;SHT31;53861;53.422;14.530;2024-03-07T05:00:25;1.54;91.77
66096;SHT31;53861;53.422;14.530;2024-03-07T05:02:52;1.53;92.01
66096;SHT31;53861;53.422;14.530;2024-03-07T05:05:20;1.51;91.94
66096;SHT31;53861;53.422;14.530;2024-03-07T05:07:51;1.48;91.77
66096;SHT31;53861;53.422;14.530;2024-03-07T05:10:19;1.50;91.96
66096;SHT31;53861;53.422;14.530;2024-03-07T05:12:48;1.53;92.43
66096;SHT31;53861;53.422;14.530;2024-03-07T05:15:15;1.48;92.41
66096;SHT31;53861;53.422;14.530;2024-03-07T05:17:43;1.50;92.59
66096;SHT31;53861;53.422;14.530;2024-03-07T05:20:11;1.48;92.58
66096;SHT31;53861;53.422;14.530;2024-03-07T05:22:39;1.41;92.40
66096;SHT31;53861;53.422;14.530;2024-03-07T05:25:10;1.44;92.75
66096;SHT31;53861;53.422;14.530;2024-03-07T05:27:37;1.40;92.64
66096;SHT31;53861;53.422;14.530;2024-03-07T05:30:07;1.46;92.69
66096;SHT31;53861;53.422;14.530;2024-03-07T05:32:37;1.44;92.58
66096;SHT31;53861;53.422;14.530;2024-03-07T05:35:06;1.41;92.75
66096;SHT31;53861;53.422;14.530;2024-03-07T05:37:34;1.44;92.76
66096;SHT31;53861;53.422;14.530;2024-03-07T05:40:01;1.41;92.91
66096;SHT31;53861;53.422;14.530;2024-03-07T05:42:29;1.43;93.01
66096;SHT31;53861;53.422;14.530;2024-03-07T05:44:57;1.50;93.08
66096;SHT31;53861;53.422;14.530;2024-03-07T05:47:26;1.55;92.83
66096;SHT31;53861;53.422;14.530;2024-03-07T05:49:53;1.47;92.11
66096;SHT31;53861;53.422;14.530;2024-03-07T05:52:21;1.47;92.25
66096;SHT31;53861;53.422;14.530;2024-03-07T05:54:48;1.44;92.31
66096;SHT31;53861;53.422;14.530;2024-03-07T05:57:15;1.54;92.78
66096;SHT31;53861;53.422;14.530;2024-03-07T05:59:43;1.58;92.78
66096;SHT31;53861;53.422;14.530;2024-03-07T06:02:12;1.63;92.71
66096;SHT31;53861;53.422;14.530;2024-03-07T06:04:43;1.68;92.77
66096;SHT31;53861;53.422;14.530;2024-03-07T06:07:10;1.68;92.76
66096;SHT31;53861;53.422;14.530;2024-03-07T06:09:38;1.70;91.93
66096;SHT31;53861;53.422;14.530;2024-03-07T06:12:06;1.73;91.62
66096;SHT31;53861;53.422;14.530;2024-03-07T06:14:34;1.85;91.55
66096;SHT31;53861;53.422;14.530;2024-03-07T06:17:02;1.91;90.86
66096;SHT31;53861;53.422;14.530;2024-03-07T06:19:30;1.92;90.12
66096;SHT31;53861;53.422;14.530;2024-03-07T06:21:59;1.98;90.06
66096;SHT31;53861;53.422;14.530;2024-03-07T06:24:26;2.05;90.29
66096;SHT31;53861;53.422;14.530;2024-03-07T06:26:56;2.08;90.18
66096;SHT31;53861;53.422;14.530;2024-03-07T06:29:29;2.15;90.17
66096;SHT31;53861;53.422;14.530;2024-03-07T06:31:57;2.19;89.42
66096;SHT31;53861;53.422;14.530;2024-03-07T06:34:24;2.30;88.89
66096;SHT31;53861;53.422;14.530;2024-03-07T06:36:53;2.42;89.04
66096;SHT31;53861;53.422;14.530;2024-03-07T06:39:22;2.50;89.04
66096;SHT31;53861;53.422;14.530;2024-03-07T06:41:51;3.35;87.06
66096;SHT31;53861;53.422;14.530;2024-03-07T06:44:18;4.36;85.67
66096;SHT31;53861;53.422;14.530;2024-03-07T06:46:49;5.29;84.42
66096;SHT31;53861;53.422;14.530;2024-03-07T06:49:16;5.63;80.24
66096;SHT31;53861;53.422;14.530;2024-03-07T06:51:44;5.71;78.66
66096;SHT31;53861;53.422;14.530;2024-03-07T06:54:11;5.97;76.91
66096;SHT31;53861;53.422;14.530;2024-03-07T06:56:40;6.24;76.87
66096;SHT31;53861;53.422;14.530;2024-03-07T06:59:09;6.56;75.69
66096;SHT31;53861;53.422;14.530;2024-03-07T07:01:37;6.62;76.75
66096;SHT31;53861;53.422;14.530;2024-03-07T07:04:08;6.69;75.12
66096;SHT31;53861;53.422;14.530;2024-03-07T07:06:39;6.96;76.22
66096;SHT31;53861;53.422;14.530;2024-03-07T07:09:09;7.62;74.75
66096;SHT31;53861;53.422;14.530;2024-03-07T07:11:36;8.92;73.30
66096;SHT31;53861;53.422;14.530;2024-03-07T07:14:05;9.04;71.54
66096;SHT31;53861;53.422;14.530;2024-03-07T07:16:32;9.14;69.13
66096;SHT31;53861;53.422;14.530;2024-03-07T07:19:01;9.55;69.87
66096;SHT31;53861;53.422;14.530;2024-03-07T07:21:29;9.01;66.60
66096;SHT31;53861;53.422;14.530;2024-03-07T07:23:57;9.91;67.77
66096;SHT31;53861;53.422;14.530;2024-03-07T07:26:24;9.33;66.87
66096;SHT31;53861;53.422;14.530;2024-03-07T07:28:52;9.89;67.18
66096;SHT31;53861;53.422;14.530;2024-03-07T07:31:22;9.29;67.48
66096;SHT31;53861;53.422;14.530;2024-03-07T07:33:50;9.11;68.39
66096;SHT31;53861;53.422;14.530;2024-03-07T07:36:17;9.40;68.91
66096;SHT31;53861;53.422;14.530;2024-03-07T07:38:45;10.21;65.69
66096;SHT31;53861;53.422;14.530;2024-03-07T07:41:16;10.95;65.28
66096;SHT31;53861;53.422;14.530;2024-03-07T07:43:43;10.16;64.23
66096;SHT31;53861;53.422;14.530;2024-03-07T07:46:11;10.88;62.41
66096;SHT31;53861;53.422;14.530;2024-03-07T07:48:40;10.25;62.35
66096;SHT31;53861;53.422;14.530;2024-03-07T07:51:07;10.85;63.00
66096;SHT31;53861;53.422;14.530;2024-03-07T07:53:35;11.05;61.55
66096;SHT31;53861;53.422;14.530;2024-03-07T07:56:03;10.69;60.95
66096;SHT31;53861;53.422;14.530;2024-03-07T07:58:30;10.85;63.15
66096;SHT31;53861;53.422;14.530;2024-03-07T08:00:58;9.57;63.17
66096;SHT31;53861;53.422;14.530;2024-03-07T08:03:25;9.42;64.52
66096;SHT31;53861;53.422;14.530;2024-03-07T08:05:54;9.72;63.92
66096;SHT31;53861;53.422;14.530;2024-03-07T08:08:22;9.75;62.85
66096;SHT31;53861;53.422;14.530;2024-03-07T08:10:50;10.78;63.05
66096;SHT31;53861;53.422;14.530;2024-03-07T08:13:18;10.98;60.88
66096;SHT31;53861;53.422;14.530;2024-03-07T08:15:46;11.50;60.38
66096;SHT31;53861;53.422;14.530;2024-03-07T08:18:13;12.29;61.03
66096;SHT31;53861;53.422;14.530;2024-03-07T08:20:41;12.94;57.27
66096;SHT31;53861;53.422;14.530;2024-03-07T08:23:10;12.60;57.76
66096;SHT31;53861;53.422;14.530;2024-03-07T08:25:39;13.13;58.72
66096;SHT31;53861;53.422;14.530;2024-03-07T08:28:07;12.87;57.46
66096;SHT31;53861;53.422;14.530;2024-03-07T08:30:35;12.52;56.66
66096;SHT31;53861;53.422;14.530;2024-03-07T08:33:03;12.94;58.00
66096;SHT31;53861;53.422;14.530;2024-03-07T08:35:31;13.48;56.48
66096;SHT31;53861;53.422;14.530;2024-03-07T08:37:59;14.06;56.81
66096;SHT31;53861;53.422;14.530;2024-03-07T08:40:28;13.61;55.71
66096;SHT31;53861;53.422;14.530;2024-03-07T08:42:58;14.23;54.85
66096;SHT31;53861;53.422;14.530;2024-03-07T08:45:29;12.72;55.35
66096;SHT31;53861;53.422;14.530;2024-03-07T08:47:59;13.16;56.00
66096;SHT31;53861;53.422;14.530;2024-03-07T08:50:27;13.38;55.47
66096;SHT31;53861;53.422;14.530;2024-03-07T08:52:56;13.37;53.36
66096;SHT31;53861;53.422;14.530;2024-03-07T08:55:24;13.43;54.09
66096;SHT31;53861;53.422;14.530;2024-03-07T08:57:53;15.22;54.66
66096;SHT31;53861;53.422;14.530;2024-03-07T09:00:21;16.26;51.15
66096;SHT31;53861;53.422;14.530;2024-03-07T09:02:52;15.51;51.84
66096;SHT31;53861;53.422;14.530;2024-03-07T09:05:21;16.36;51.15
66096;SHT31;53861;53.422;14.530;2024-03-07T09:07:49;15.42;49.64
66096;SHT31;53861;53.422;14.530;2024-03-07T09:10:17;16.28;52.13
66096;SHT31;53861;53.422;14.530;2024-03-07T09:12:46;15.96;51.38
66096;SHT31;53861;53.422;14.530;2024-03-07T09:15:16;16.85;51.36
66096;SHT31;53861;53.422;14.530;2024-03-07T09:17:45;16.36;50.40
66096;SHT31;53861;53.422;14.530;2024-03-07T09:20:13;17.05;51.63
66096;SHT31;53861;53.422;14.530;2024-03-07T09:22:41;14.47;51.10
66096;SHT31;53861;53.422;14.530;2024-03-07T09:25:09;13.57;52.32
66096;SHT31;53861;53.422;14.530;2024-03-07T09:27:36;15.01;53.19
66096;SHT31;53861;53.422;14.530;2024-03-07T09:30:06;16.79;50.10
66096;SHT31;53861;53.422;14.530;2024-03-07T09:32:40;17.90;47.10
66096;SHT31;53861;53.422;14.530;2024-03-07T09:35:09;17.38;48.05
66096;SHT31;53861;53.422;14.530;2024-03-07T09:37:40;16.21;46.32
66096;SHT31;53861;53.422;14.530;2024-03-07T09:40:09;17.28;47.67
66096;SHT31;53861;53.422;14.530;2024-03-07T09:42:42;17.67;47.71
66096;SHT31;53861;53.422;14.530;2024-03-07T09:45:13;18.71;45.30
66096;SHT31;53861;53.422;14.530;2024-03-07T09:47:45;18.77;44.56
66096;SHT31;53861;53.422;14.530;2024-03-07T09:50:15;19.15;44.90
66096;SHT31;53861;53.422;14.530;2024-03-07T09:52:46;19.88;44.25
66096;SHT31;53861;53.422;14.530;2024-03-07T09:55:16;20.09;42.98
66096;SHT31;53861;53.422;14.530;2024-03-07T09:57:45;17.57;45.89
66096;SHT31;53861;53.422;14.530;2024-03-07T10:00:16;17.84;51.77
66096;SHT31;53861;53.422;14.530;2024-03-07T10:02:56;17.98;48.79
66096;SHT31;53861;53.422;14.530;2024-03-07T10:05:27;19.07;46.65
66096;SHT31;53861;53.422;14.530;2024-03-07T10:07:55;19.27;44.14
66096;SHT31;53861;53.422;14.530;2024-03-07T10:10:23;19.63;52.19
66096;SHT31;53861;53.422;14.530;2024-03-07T10:12:52;19.81;43.18
66096;SHT31;53861;53.422;14.530;2024-03-07T10:15:19;19.26;44.26
66096;SHT31;53861;53.422;14.530;2024-03-07T10:17:48;20.56;43.24
66096;SHT31;53861;53.422;14.530;2024-03-07T10:20:19;18.91;44.82
66096;SHT31;53861;53.422;14.530;2024-03-07T10:22:48;19.66;46.13
66096;SHT31;53861;53.422;14.530;2024-03-07T10:25:17;21.65;41.44
66096;SHT31;53861;53.422;14.530;2024-03-07T10:27:46;20.39;40.00
66096;SHT31;53861;53.422;14.530;2024-03-07T10:30:14;19.60;40.68
66096;SHT31;53861;53.422;14.530;2024-03-07T10:32:46;19.43;45.78
66096;SHT31;53861;53.422;14.530;2024-03-07T10:35:21;19.97;42.35
66096;SHT31;53861;53.422;14.530;2024-03-07T10:37:50;20.62;41.62
66096;SHT31;53861;53.422;14.530;2024-03-07T10:40:20;20.01;39.47
66096;SHT31;53861;53.422;14.530;2024-03-07T10:42:49;19.24;43.08
66096;SHT31;53861;53.422;14.530;2024-03-07T10:45:19;20.32;43.87
66096;SHT31;53861;53.422;14.530;2024-03-07T10:47:53;19.50;44.33
66096;SHT31;53861;53.422;14.530;2024-03-07T10:50:47;20.26;41.00
66096;SHT31;53861;53.422;14.530;2024-03-07T10:53:20;21.12;42.05
66096;SHT31;53861;53.422;14.530;2024-03-07T10:56:05;20.29;41.20
66096;SHT31;53861;53.422;14.530;2024-03-07T10:58:41;21.00;39.14
66096;SHT31;53861;53.422;14.530;2024-03-07T11:01:10;20.28;45.10
66096;SHT31;53861;53.422;14.530;2024-03-07T11:03:40;21.79;41.92
66096;SHT31;53861;53.422;14.530;2024-03-07T11:06:10;22.02;41.99
66096;SHT31;53861;53.422;14.530;2024-03-07T11:08:39;22.22;38.49
66096;SHT31;53861;53.422;14.530;2024-03-07T11:11:07;21.45;38.62
66096;SHT31;53861;53.422;14.530;2024-03-07T11:13:35;22.83;39.60
66096;SHT31;53861;53.422;14.530;2024-03-07T11:16:05;23.27;37.08
66096;SHT31;53861;53.422;14.530;2024-03-07T11:18:34;23.19;36.80
66096;SHT31;53861;53.422;14.530;2024-03-07T11:21:03;21.99;39.83
66096;SHT31;53861;53.422;14.530;2024-03-07T11:23:35;19.67;39.46
66096;SHT31;53861;53.422;14.530;2024-03-07T11:26:08;18.58;41.26
66096;SHT31;53861;53.422;14.530;2024-03-07T11:28:36;20.55;41.93
66096;SHT31;53861;53.422;14.530;2024-03-07T11:31:08;22.50;38.12
66096;SHT31;53861;53.422;14.530;2024-03-07T11:33:39;23.65;37.35
66096;SHT31;53861;53.422;14.530;2024-03-07T11:36:10;23.69;34.54
66096;SHT31;53861;53.422;14.530;2024-03-07T11:38:44;22.64;37.22
66096;SHT31;53861;53.422;14.530;2024-03-07T11:41:12;22.03;38.37
66096;SHT31;53861;53.422;14.530;2024-03-07T11:43:40;22.49;35.99
66096;SHT31;53861;53.422;14.530;2024-03-07T11:46:09;21.93;36.95
66096;SHT31;53861;53.422;14.530;2024-03-07T11:48:42;22.67;38.61
66096;SHT31;53861;53.422;14.530;2024-03-07T11:51:12;21.93;36.50
66096;SHT31;53861;53.422;14.530;2024-03-07T11:53:43;21.17;39.60
66096;SHT31;53861;53.422;14.530;2024-03-07T11:56:13;21.37;37.93
66096;SHT31;53861;53.422;14.530;2024-03-07T11:58:44;22.56;36.38
66096;SHT31;53861;53.422;14.530;2024-03-07T12:01:18;21.65;38.15
66096;SHT31;53861;53.422;14.530;2024-03-07T12:03:51;22.40;36.59
66096;SHT31;53861;53.422;14.530;2024-03-07T12:06:18;21.96;38.67
66096;SHT31;53861;53.422;14.530;2024-03-07T12:08:48;21.83;37.67
66096;SHT31;53861;53.422;14.530;2024-03-07T12:11:17;22.17;34.69
66096;SHT31;53861;53.422;14.530;2024-03-07T12:13:45;22.16;36.82
66096;SHT31;53861;53.422;14.530;2024-03-07T12:16:13;23.32;37.54
66096;SHT31;53861;53.422;14.530;2024-03-07T12:18:42;21.30;36.59
66096;SHT31;53861;53.422;14.530;2024-03-07T12:21:10;21.69;34.71
66096;SHT31;53861;53.422;14.530;2024-03-07T12:23:38;20.22;34.65
66096;SHT31;53861;53.422;14.530;2024-03-07T12:26:08;21.32;38.35
66096;SHT31;53861;53.422;14.530;2024-03-07T12:28:41;21.77;37.40
66096;SHT31;53861;53.422;14.530;2024-03-07T12:31:09;22.57;36.54
66096;SHT31;53861;53.422;14.530;2024-03-07T12:33:42;23.38;36.48
66096;SHT31;53861;53.422;14.530;2024-03-07T12:36:13;22.86;35.64
66096;SHT31;53861;53.422;14.530;2024-03-07T12:38:42;23.52;34.32
66096;SHT31;53861;53.422;14.530;2024-03-07T12:41:11;23.59;32.80
66096;SHT31;53861;53.422;14.530;2024-03-07T12:43:42;23.59;34.47
66096;SHT31;53861;53.422;14.530;2024-03-07T12:46:11;22.59;34.60
66096;SHT31;53861;53.422;14.530;2024-03-07T12:48:39;23.62;34.26
66096;SHT31;53861;53.422;14.530;2024-03-07T12:51:08;23.25;34.50
66096;SHT31;53861;53.422;14.530;2024-03-07T12:53:37;23.32;35.45
66096;SHT31;53861;53.422;14.530;2024-03-07T12:56:04;24.27;35.54
66096;SHT31;53861;53.422;14.530;2024-03-07T12:58:33;23.73;33.76
66096;SHT31;53861;53.422;14.530;2024-03-07T13:01:01;22.24;36.21
66096;SHT31;53861;53.422;14.530;2024-03-07T13:03:36;23.63;34.46
66096;SHT31;53861;53.422;14.530;2024-03-07T13:06:04;23.95;33.16
66096;SHT31;53861;53.422;14.530;2024-03-07T13:08:32;24.39;34.39
66096;SHT31;53861;53.422;14.530;2024-03-07T13:10:59;23.35;31.14
66096;SHT31;53861;53.422;14.530;2024-03-07T13:13:27;22.93;34.85
66096;SHT31;53861;53.422;14.530;2024-03-07T13:15:55;24.30;33.80
66096;SHT31;53861;53.422;14.530;2024-03-07T13:18:23;23.68;33.97
66096;SHT31;53861;53.422;14.530;2024-03-07T13:20:51;23.95;32.86
66096;SHT31;53861;53.422;14.530;2024-03-07T13:23:18;24.77;31.17
66096;SHT31;53861;53.422;14.530;2024-03-07T13:25:46;24.98;33.43
66096;SHT31;53861;53.422;14.530;2024-03-07T13:28:15;24.77;30.57
66096;SHT31;53861;53.422;14.530;2024-03-07T13:30:44;26.10;29.87
66096;SHT31;53861;53.422;14.530;2024-03-07T13:33:16;25.50;30.40
66096;SHT31;53861;53.422;14.530;2024-03-07T13:35:43;25.69;31.06
66096;SHT31;53861;53.422;14.530;2024-03-07T13:38:11;24.63;31.72
66096;SHT31;53861;53.422;14.530;2024-03-07T13:40:41;25.12;32.40
66096;SHT31;53861;53.422;14.530;2024-03-07T13:43:09;23.63;31.06
66096;SHT31;53861;53.422;14.530;2024-03-07T13:45:37;26.61;29.54
66096;SHT31;53861;53.422;14.530;2024-03-07T13:48:07;24.80;30.98
66096;SHT31;53861;53.422;14.530;2024-03-07T13:50:37;25.67;31.70
66096;SHT31;53861;53.422;14.530;2024-03-07T13:53:06;25.54;32.34
66096;SHT31;53861;53.422;14.530;2024-03-07T13:55:56;25.84;30.47
66096;SHT31;53861;53.422;14.530;2024-03-07T13:59:07;26.48;31.68
66096;SHT31;53861;53.422;14.530;2024-03-07T14:01:45;26.62;30.50
66096;SHT31;53861;53.422;14.530;2024-03-07T14:07:56;27.47;29.64
66096;SHT31;53861;53.422;14.530;2024-03-07T14:13:48;28.15;28.67
66096;SHT31;53861;53.422;14.530;2024-03-07T14:16:44;26.12;30.38
66096;SHT31;53861;53.422;14.530;2024-03-07T14:19:43;27.23;28.81
66096;SHT31;53861;53.422;14.530;2024-03-07T14:22:39;26.71;30.35
66096;SHT31;53861;53.422;14.530;2024-03-07T14:28:48;26.61;28.38
66096;SHT31;53861;53.422;14.530;2024-03-07T14:31:18;27.22;28.60
66096;SHT31;53861;53.422;14.530;2024-03-07T14:33:54;28.53;28.71
66096;SHT31;53861;53.422;14.530;2024-03-07T14:36:35;27.76;30.56
66096;SHT31;53861;53.422;14.530;2024-03-07T14:39:04;24.47;30.18
66096;SHT31;53861;53.422;14.530;2024-03-07T14:41:48;27.83;27.99
66096;SHT31;53861;53.422;14.530;2024-03-07T14:44:18;28.10;28.12
66096;SHT31;53861;53.422;14.530;2024-03-07T14:46:48;27.51;28.51
66096;SHT31;53861;53.422;14.530;2024-03-07T14:49:20;28.48;27.70
66096;SHT31;53861;53.422;14.530;2024-03-07T14:51:49;28.20;28.55
66096;SHT31;53861;53.422;14.530;2024-03-07T14:54:20;29.40;27.69
66096;SHT31;53861;53.422;14.530;2024-03-07T14:56:49;27.37;29.18
66096;SHT31;53861;53.422;14.530;2024-03-07T14:59:18;29.02;29.28
66096;SHT31;53861;53.422;14.530;2024-03-07T15:01:47;26.64;27.83
66096;SHT31;53861;53.422;14.530;2024-03-07T15:04:16;25.38;31.12
66096;SHT31;53861;53.422;14.530;2024-03-07T15:06:44;25.38;31.51
66096;SHT31;53861;53.422;14.530;2024-03-07T15:09:12;22.50;33.31
66096;SHT31;53861;53.422;14.530;2024-03-07T15:11:39;20.17;35.62
66096;SHT31;53861;53.422;14.530;2024-03-07T15:14:08;21.27;34.45
66096;SHT31;53861;53.422;14.530;2024-03-07T15:16:36;22.24;31.60
66096;SHT31;53861;53.422;14.530;2024-03-07T15:19:04;24.23;31.78
66096;SHT31;53861;53.422;14.530;2024-03-07T15:21:33;24.39;31.86
66096;SHT31;53861;53.422;14.530;2024-03-07T15:24:00;23.92;32.82
66096;SHT31;53861;53.422;14.530;2024-03-07T15:26:29;21.83;34.64
66096;SHT31;53861;53.422;14.530;2024-03-07T15:28:57;23.83;32.50
66096;SHT31;53861;53.422;14.530;2024-03-07T15:31:27;22.67;33.01
66096;SHT31;53861;53.422;14.530;2024-03-07T15:33:55;22.30;34.29
66096;SHT31;53861;53.422;14.530;2024-03-07T15:36:22;22.35;35.33
66096;SHT31;53861;53.422;14.530;2024-03-07T15:38:51;20.94;35.65
66096;SHT31;53861;53.422;14.530;2024-03-07T15:41:19;17.20;40.51
66096;SHT31;53861;53.422;14.530;2024-03-07T15:43:48;18.38;39.99
66096;SHT31;53861;53.422;14.530;2024-03-07T15:46:16;18.08;39.07
66096;SHT31;53861;53.422;14.530;2024-03-07T15:48:45;17.49;40.34